sensor_id;sensor_type;location;lat;lon;timestamp;P1;durP1;ratioP1;P2;durP2;ratioP2
43646;SDS011;56152;49.996;18.980;2023-07-09T00:01:05;38.00;;;24.08;;
43646;SDS011;56152;49.996;18.980;2023-07-09T00:06:09;40.35;;;22.85;;
43646;SDS011;56152;49.996;18.980;2023-07-09T00:16:56;34.17;;;20.63;;
43646;SDS011;56152;49.996;18.980;2023-07-09T00:21:58;32.60;;;19.75;;
43646;SDS011;56152;49.996;18.980;2023-07-09T00:27:09;29.95;;;18.60;;
43646;SDS011;56152;49.996;18.980;2023-07-09T00:32:14;28.97;;;16.73;;
43646;SDS011;56152;49.996;18.980;2023-07-09T00:42:47;25.17;;;16.23;;
43646;SDS011;56152;49.996;18.980;2023-07-09T00:47:56;27.37;;;16.30;;
43646;SDS011;56152;49.996;18.980;2023-07-09T00:52:59;31.65;;;18.88;;
43646;SDS011;56152;49.996;18.980;2023-07-09T00:58:08;31.00;;;19.02;;
43646;SDS011;56152;49.996;18.980;2023-07-09T01:15:01;30.92;;;17.70;;
43646;SDS011;56152;49.996;18.980;2023-07-09T01:20:06;32.90;;;18.35;;
43646;SDS011;56152;49.996;18.980;2023-07-09T01:42:10;28.45;;;16.20;;
43646;SDS011;56152;49.996;18.980;2023-07-09T01:47:13;26.63;;;15.60;;
43646;SDS011;56152;49.996;18.980;2023-07-09T01:52:31;23.20;;;14.57;;
43646;SDS011;56152;49.996;18.980;2023-07-09T01:57:34;27.42;;;14.85;;
43646;SDS011;56152;49.996;18.980;2023-07-09T02:02:36;25.27;;;14.52;;
43646;SDS011;56152;49.996;18.980;2023-07-09T02:07:52;26.50;;;16.40;;
43646;SDS011;56152;49.996;18.980;2023-07-09T02:12:55;24.75;;;13.95;;
43646;SDS011;56152;49.996;18.980;2023-07-09T02:17:57;23.23;;;15.35;;
43646;SDS011;56152;49.996;18.980;2023-07-09T02:23:03;25.15;;;14.95;;
43646;SDS011;56152;49.996;18.980;2023-07-09T02:28:06;23.92;;;14.40;;
43646;SDS011;56152;49.996;18.980;2023-07-09T02:33:20;29.95;;;14.95;;
43646;SDS011;56152;49.996;18.980;2023-07-09T02:38:25;26.35;;;14.70;;
43646;SDS011;56152;49.996;18.980;2023-07-09T02:48:42;25.27;;;14.60;;
43646;SDS011;56152;49.996;18.980;2023-07-09T02:53:57;26.42;;;15.20;;
43646;SDS011;56152;49.996;18.980;2023-07-09T02:58:59;21.92;;;15.15;;
43646;SDS011;56152;49.996;18.980;2023-07-09T03:09:30;31.58;;;16.92;;
43646;SDS011;56152;49.996;18.980;2023-07-09T03:14:32;23.15;;;15.38;;
43646;SDS011;56152;49.996;18.980;2023-07-09T03:19:35;25.73;;;15.85;;
43646;SDS011;56152;49.996;18.980;2023-07-09T03:24:38;25.15;;;16.13;;
43646;SDS011;56152;49.996;18.980;2023-07-09T03:29:40;24.02;;;13.88;;
43646;SDS011;56152;49.996;18.980;2023-07-09T03:34:49;25.05;;;13.73;;
43646;SDS011;56152;49.996;18.980;2023-07-09T03:39:54;27.98;;;14.55;;
43646;SDS011;56152;49.996;18.980;2023-07-09T03:45:05;25.20;;;15.75;;
43646;SDS011;56152;49.996;18.980;2023-07-09T03:50:10;23.15;;;14.48;;
43646;SDS011;56152;49.996;18.980;2023-07-09T04:01:00;22.88;;;14.93;;
43646;SDS011;56152;49.996;18.980;2023-07-09T04:12:13;24.27;;;13.55;;
43646;SDS011;56152;49.996;18.980;2023-07-09T04:17:14;21.92;;;14.32;;
43646;SDS011;56152;49.996;18.980;2023-07-09T04:22:17;18.65;;;12.57;;
43646;SDS011;56152;49.996;18.980;2023-07-09T04:27:24;19.25;;;11.90;;
43646;SDS011;56152;49.996;18.980;2023-07-09T04:32:27;14.68;;;10.15;;
43646;SDS011;56152;49.996;18.980;2023-07-09T04:37:29;15.88;;;8.60;;
43646;SDS011;56152;49.996;18.980;2023-07-09T04:42:48;14.15;;;8.98;;
43646;SDS011;56152;49.996;18.980;2023-07-09T04:47:49;13.38;;;7.68;;
43646;SDS011;56152;49.996;18.980;2023-07-09T04:53:02;16.80;;;8.35;;
43646;SDS011;56152;49.996;18.980;2023-07-09T04:58:06;16.30;;;8.48;;
43646;SDS011;56152;49.996;18.980;2023-07-09T05:08:59;8.15;;;5.40;;
43646;SDS011;56152;49.996;18.980;2023-07-09T05:14:09;8.18;;;5.80;;
43646;SDS011;56152;49.996;18.980;2023-07-09T05:19:11;6.88;;;4.82;;
43646;SDS011;56152;49.996;18.980;2023-07-09T05:24:32;8.18;;;5.05;;
43646;SDS011;56152;49.996;18.980;2023-07-09T05:29:35;6.70;;;4.78;;
43646;SDS011;56152;49.996;18.980;2023-07-09T05:34:50;9.45;;;4.18;;
43646;SDS011;56152;49.996;18.980;2023-07-09T05:39:52;7.63;;;4.40;;
43646;SDS011;56152;49.996;18.980;2023-07-09T05:44:58;6.20;;;4.10;;
43646;SDS011;56152;49.996;18.980;2023-07-09T05:50:00;5.78;;;3.45;;
43646;SDS011;56152;49.996;18.980;2023-07-09T05:55:05;4.40;;;3.38;;
43646;SDS011;56152;49.996;18.980;2023-07-09T06:00:10;5.18;;;3.80;;
43646;SDS011;56152;49.996;18.980;2023-07-09T06:05:13;7.03;;;3.42;;
43646;SDS011;56152;49.996;18.980;2023-07-09T06:10:15;6.03;;;3.78;;
43646;SDS011;56152;49.996;18.980;2023-07-09T06:20:30;6.78;;;3.75;;
43646;SDS011;56152;49.996;18.980;2023-07-09T06:31:22;5.40;;;3.67;;
43646;SDS011;56152;49.996;18.980;2023-07-09T06:36:24;5.38;;;3.38;;
43646;SDS011;56152;49.996;18.980;2023-07-09T06:46:55;6.85;;;3.55;;
43646;SDS011;56152;49.996;18.980;2023-07-09T06:51:57;6.95;;;2.97;;
43646;SDS011;56152;49.996;18.980;2023-07-09T06:57:05;7.95;;;3.47;;
43646;SDS011;56152;49.996;18.980;2023-07-09T07:02:09;5.63;;;3.40;;
43646;SDS011;56152;49.996;18.980;2023-07-09T07:07:11;9.60;;;3.70;;
43646;SDS011;56152;49.996;18.980;2023-07-09T07:18:09;6.50;;;3.50;;
43646;SDS011;56152;49.996;18.980;2023-07-09T07:23:18;6.55;;;3.60;;
43646;SDS011;56152;49.996;18.980;2023-07-09T07:34:25;3.97;;;3.10;;
43646;SDS011;56152;49.996;18.980;2023-07-09T07:39:27;4.90;;;3.22;;
43646;SDS011;56152;49.996;18.980;2023-07-09T07:44:42;6.38;;;2.85;;
43646;SDS011;56152;49.996;18.980;2023-07-09T07:49:49;7.05;;;2.80;;
43646;SDS011;56152;49.996;18.980;2023-07-09T07:54:58;8.20;;;3.08;;
43646;SDS011;56152;49.996;18.980;2023-07-09T08:00:00;12.00;;;3.65;;
43646;SDS011;56152;49.996;18.980;2023-07-09T08:05:04;5.15;;;3.10;;
43646;SDS011;56152;49.996;18.980;2023-07-09T08:10:21;5.40;;;3.05;;
43646;SDS011;56152;49.996;18.980;2023-07-09T08:15:29;4.55;;;2.90;;
43646;SDS011;56152;49.996;18.980;2023-07-09T08:26:16;5.28;;;3.22;;
43646;SDS011;56152;49.996;18.980;2023-07-09T08:31:24;6.57;;;3.35;;
43646;SDS011;56152;49.996;18.980;2023-07-09T08:36:32;7.95;;;3.35;;
43646;SDS011;56152;49.996;18.980;2023-07-09T08:46:44;4.68;;;3.67;;
43646;SDS011;56152;49.996;18.980;2023-07-09T08:51:56;4.38;;;3.20;;
43646;SDS011;56152;49.996;18.980;2023-07-09T08:57:17;5.63;;;2.92;;
43646;SDS011;56152;49.996;18.980;2023-07-09T09:02:30;4.90;;;2.88;;
43646;SDS011;56152;49.996;18.980;2023-07-09T09:07:40;6.18;;;2.97;;
43646;SDS011;56152;49.996;18.980;2023-07-09T09:18:20;4.03;;;3.03;;
43646;SDS011;56152;49.996;18.980;2023-07-09T09:23:36;6.78;;;3.08;;
43646;SDS011;56152;49.996;18.980;2023-07-09T09:40:01;3.03;;;2.72;;
43646;SDS011;56152;49.996;18.980;2023-07-09T09:45:33;6.07;;;3.20;;
43646;SDS011;56152;49.996;18.980;2023-07-09T09:50:42;4.75;;;3.30;;
43646;SDS011;56152;49.996;18.980;2023-07-09T09:56:20;5.90;;;2.72;;
43646;SDS011;56152;49.996;18.980;2023-07-09T10:01:39;4.10;;;2.90;;
43646;SDS011;56152;49.996;18.980;2023-07-09T10:06:43;3.25;;;2.88;;
43646;SDS011;56152;49.996;18.980;2023-07-09T10:11:48;5.47;;;3.40;;
43646;SDS011;56152;49.996;18.980;2023-07-09T10:22:38;4.45;;;3.13;;
43646;SDS011;56152;49.996;18.980;2023-07-09T10:33:26;4.28;;;2.95;;
43646;SDS011;56152;49.996;18.980;2023-07-09T10:39:02;5.93;;;3.42;;
43646;SDS011;56152;49.996;18.980;2023-07-09T10:44:11;4.18;;;3.42;;
43646;SDS011;56152;49.996;18.980;2023-07-09T10:49:17;4.65;;;3.03;;
43646;SDS011;56152;49.996;18.980;2023-07-09T10:54:32;5.72;;;3.30;;
43646;SDS011;56152;49.996;18.980;2023-07-09T11:00:07;6.60;;;3.20;;
43646;SDS011;56152;49.996;18.980;2023-07-09T11:05:13;9.85;;;3.40;;
43646;SDS011;56152;49.996;18.980;2023-07-09T11:16:00;5.55;;;3.25;;
43646;SDS011;56152;49.996;18.980;2023-07-09T11:21:06;3.78;;;3.33;;
43646;SDS011;56152;49.996;18.980;2023-07-09T11:26:28;5.38;;;3.30;;
43646;SDS011;56152;49.996;18.980;2023-07-09T11:31:36;4.55;;;2.95;;
43646;SDS011;56152;49.996;18.980;2023-07-09T11:36:50;3.20;;;2.80;;
43646;SDS011;56152;49.996;18.980;2023-07-09T11:42:51;4.53;;;3.40;;
43646;SDS011;56152;49.996;18.980;2023-07-09T13:05:55;6.43;;;3.20;;
43646;SDS011;56152;49.996;18.980;2023-07-09T13:10:59;6.78;;;3.20;;
43646;SDS011;56152;49.996;18.980;2023-07-09T13:16:04;6.45;;;3.33;;
43646;SDS011;56152;49.996;18.980;2023-07-09T13:21:13;7.85;;;3.45;;
43646;SDS011;56152;49.996;18.980;2023-07-09T14:33:18;5.18;;;3.15;;
43646;SDS011;56152;49.996;18.980;2023-07-09T14:38:27;4.57;;;3.53;;
43646;SDS011;56152;49.996;18.980;2023-07-09T14:43:31;7.18;;;3.40;;
43646;SDS011;56152;49.996;18.980;2023-07-09T14:55:12;7.88;;;3.63;;
43646;SDS011;56152;49.996;18.980;2023-07-09T15:02:28;5.57;;;3.42;;
43646;SDS011;56152;49.996;18.980;2023-07-09T15:06:32;4.35;;;3.38;;
43646;SDS011;56152;49.996;18.980;2023-07-09T15:17:01;3.67;;;3.20;;
43646;SDS011;56152;49.996;18.980;2023-07-09T15:40:22;5.88;;;3.40;;
43646;SDS011;56152;49.996;18.980;2023-07-09T15:45:29;6.28;;;3.50;;
43646;SDS011;56152;49.996;18.980;2023-07-09T15:50:39;8.82;;;3.55;;
43646;SDS011;56152;49.996;18.980;2023-07-09T15:55:44;6.28;;;3.45;;
43646;SDS011;56152;49.996;18.980;2023-07-09T16:00:49;4.43;;;3.28;;
43646;SDS011;56152;49.996;18.980;2023-07-09T16:05:51;4.65;;;3.13;;
43646;SDS011;56152;49.996;18.980;2023-07-09T16:11:09;8.50;;;3.45;;
43646;SDS011;56152;49.996;18.980;2023-07-09T16:16:24;4.85;;;3.47;;
43646;SDS011;56152;49.996;18.980;2023-07-09T16:21:33;5.07;;;2.80;;
43646;SDS011;56152;49.996;18.980;2023-07-09T16:26:45;7.88;;;3.45;;
43646;SDS011;56152;49.996;18.980;2023-07-09T16:31:55;5.10;;;3.28;;
43646;SDS011;56152;49.996;18.980;2023-07-09T16:36:59;6.20;;;3.30;;
43646;SDS011;56152;49.996;18.980;2023-07-09T16:42:13;4.22;;;3.10;;
43646;SDS011;56152;49.996;18.980;2023-07-09T16:47:19;4.55;;;3.25;;
43646;SDS011;56152;49.996;18.980;2023-07-09T16:52:24;10.70;;;4.43;;
43646;SDS011;56152;49.996;18.980;2023-07-09T17:03:03;6.68;;;3.28;;
43646;SDS011;56152;49.996;18.980;2023-07-09T17:08:15;6.68;;;3.88;;
43646;SDS011;56152;49.996;18.980;2023-07-09T17:13:35;6.45;;;4.10;;
43646;SDS011;56152;49.996;18.980;2023-07-09T17:18:40;4.88;;;3.50;;
43646;SDS011;56152;49.996;18.980;2023-07-09T17:23:46;4.90;;;3.33;;
43646;SDS011;56152;49.996;18.980;2023-07-09T17:28:51;7.38;;;4.45;;
43646;SDS011;56152;49.996;18.980;2023-07-09T17:33:53;4.88;;;3.50;;
43646;SDS011;56152;49.996;18.980;2023-07-09T17:38:59;5.65;;;3.90;;
43646;SDS011;56152;49.996;18.980;2023-07-09T17:44:04;7.47;;;5.47;;
43646;SDS011;56152;49.996;18.980;2023-07-09T17:49:40;13.32;;;11.20;;
43646;SDS011;56152;49.996;18.980;2023-07-09T17:54:43;6.60;;;4.15;;
43646;SDS011;56152;49.996;18.980;2023-07-09T17:59:53;6.05;;;3.97;;
43646;SDS011;56152;49.996;18.980;2023-07-09T18:04:55;8.25;;;3.70;;
43646;SDS011;56152;49.996;18.980;2023-07-09T18:10:06;4.82;;;3.72;;
43646;SDS011;56152;49.996;18.980;2023-07-09T18:15:17;7.72;;;3.78;;
43646;SDS011;56152;49.996;18.980;2023-07-09T18:20:25;10.32;;;3.90;;
43646;SDS011;56152;49.996;18.980;2023-07-09T18:25:38;12.43;;;3.97;;
43646;SDS011;56152;49.996;18.980;2023-07-09T18:30:45;5.07;;;3.35;;
43646;SDS011;56152;49.996;18.980;2023-07-09T18:35:51;6.35;;;3.50;;
43646;SDS011;56152;49.996;18.980;2023-07-09T18:40:54;7.68;;;4.03;;
43646;SDS011;56152;49.996;18.980;2023-07-09T18:45:58;12.63;;;7.40;;
43646;SDS011;56152;49.996;18.980;2023-07-09T18:51:00;32.05;;;8.13;;
43646;SDS011;56152;49.996;18.980;2023-07-09T18:56:03;21.38;;;7.32;;
43646;SDS011;56152;49.996;18.980;2023-07-09T19:01:10;22.58;;;8.95;;
43646;SDS011;56152;49.996;18.980;2023-07-09T19:06:21;16.95;;;8.43;;
43646;SDS011;56152;49.996;18.980;2023-07-09T19:11:23;21.90;;;6.97;;
43646;SDS011;56152;49.996;18.980;2023-07-09T19:16:29;18.05;;;5.80;;
43646;SDS011;56152;49.996;18.980;2023-07-09T19:38:20;13.43;;;6.70;;
43646;SDS011;56152;49.996;18.980;2023-07-09T19:48:51;13.70;;;8.65;;
43646;SDS011;56152;49.996;18.980;2023-07-09T19:59:45;20.08;;;9.95;;
43646;SDS011;56152;49.996;18.980;2023-07-09T20:10:19;11.35;;;6.85;;
43646;SDS011;56152;49.996;18.980;2023-07-09T20:15:36;21.25;;;9.57;;
43646;SDS011;56152;49.996;18.980;2023-07-09T20:20:41;14.20;;;8.15;;
43646;SDS011;56152;49.996;18.980;2023-07-09T20:25:48;17.27;;;10.05;;
43646;SDS011;56152;49.996;18.980;2023-07-09T20:36:36;10.75;;;7.65;;
43646;SDS011;56152;49.996;18.980;2023-07-09T20:41:46;12.10;;;6.63;;
43646;SDS011;56152;49.996;18.980;2023-07-09T20:46:54;13.20;;;9.70;;
43646;SDS011;56152;49.996;18.980;2023-07-09T20:57:25;12.27;;;8.02;;
43646;SDS011;56152;49.996;18.980;2023-07-09T21:07:51;12.18;;;8.70;;
43646;SDS011;56152;49.996;18.980;2023-07-09T21:13:01;14.52;;;10.25;;
43646;SDS011;56152;49.996;18.980;2023-07-09T21:18:11;18.58;;;10.95;;
43646;SDS011;56152;49.996;18.980;2023-07-09T21:23:17;19.05;;;11.10;;
43646;SDS011;56152;49.996;18.980;2023-07-09T21:33:44;24.60;;;13.05;;
43646;SDS011;56152;49.996;18.980;2023-07-09T21:44:17;22.75;;;11.57;;
43646;SDS011;56152;49.996;18.980;2023-07-09T21:49:20;17.98;;;11.13;;
43646;SDS011;56152;49.996;18.980;2023-07-09T21:54:30;19.55;;;11.90;;
43646;SDS011;56152;49.996;18.980;2023-07-09T21:59:33;16.27;;;10.95;;
43646;SDS011;56152;49.996;18.980;2023-07-09T22:04:37;20.15;;;11.15;;
43646;SDS011;56152;49.996;18.980;2023-07-09T22:09:40;17.00;;;11.45;;
43646;SDS011;56152;49.996;18.980;2023-07-09T22:14:44;21.80;;;12.38;;
43646;SDS011;56152;49.996;18.980;2023-07-09T22:19:47;18.92;;;10.85;;
43646;SDS011;56152;49.996;18.980;2023-07-09T22:24:51;17.10;;;9.50;;
43646;SDS011;56152;49.996;18.980;2023-07-09T22:29:54;20.27;;;11.18;;
43646;SDS011;56152;49.996;18.980;2023-07-09T22:35:00;14.00;;;9.55;;
43646;SDS011;56152;49.996;18.980;2023-07-09T22:40:16;20.10;;;10.07;;
43646;SDS011;56152;49.996;18.980;2023-07-09T22:45:23;21.38;;;12.82;;
43646;SDS011;56152;49.996;18.980;2023-07-09T22:50:28;15.23;;;10.35;;
43646;SDS011;56152;49.996;18.980;2023-07-09T22:55:42;11.82;;;9.13;;
43646;SDS011;56152;49.996;18.980;2023-07-09T23:00:46;14.90;;;10.20;;
43646;SDS011;56152;49.996;18.980;2023-07-09T23:06:09;17.63;;;10.38;;
43646;SDS011;56152;49.996;18.980;2023-07-09T23:11:15;14.77;;;9.63;;
43646;SDS011;56152;49.996;18.980;2023-07-09T23:16:19;16.40;;;10.05;;
43646;SDS011;56152;49.996;18.980;2023-07-09T23:26:56;18.63;;;11.05;;
43646;SDS011;56152;49.996;18.980;2023-07-09T23:32:01;16.40;;;11.18;;
43646;SDS011;56152;49.996;18.980;2023-07-09T23:37:04;16.20;;;9.85;;
43646;SDS011;56152;49.996;18.980;2023-07-09T23:42:08;17.80;;;10.75;;
43646;SDS011;56152;49.996;18.980;2023-07-09T23:47:13;16.45;;;11.48;;
43646;SDS011;56152;49.996;18.980;2023-07-09T23:52:15;19.70;;;10.40;;
43646;SDS011;56152;49.996;18.980;2023-07-09T23:57:21;14.20;;;9.85;;
